sensor_id;sensor_type;location;lat;lon;timestamp;pressure;altitude;pressure_sealevel;temperature;humidity
6449;BME280;3257;52.298;13.690;2022-09-09T00:01:37;76403.84;;;-144.77;100.00
6449;BME280;3257;52.298;13.690;2022-09-09T00:04:20;76407.81;;;-144.77;100.00
6449;BME280;3257;52.298;13.690;2022-09-09T00:07:02;76411.78;;;-144.77;100.00
6449;BME280;3257;52.298;13.690;2022-09-09T00:09:42;76403.84;;;-144.77;100.00
6449;BME280;3257;52.298;13.690;2022-09-09T00:12:15;76405.81;;;-144.77;100.00
6449;BME280;3257;52.298;13.690;2022-09-09T00:14:59;76419.72;;;-144.77;100.00
6449;BME280;3257;52.298;13.690;2022-09-09T00:17:39;76407.81;;;-144.77;100.00
6449;BME280;3257;52.298;13.690;2022-09-09T00:20:16;76395.91;;;-144.77;100.00
6449;BME280;3257;52.298;13.690;2022-09-09T00:26:05;76417.75;;;-144.77;100.00
6449;BME280;3257;52.298;13.690;2022-09-09T00:28:40;76397.88;;;-144.77;100.00
6449;BME280;3257;52.298;13.690;2022-09-09T00:31:15;76401.84;;;-144.77;99.93
6449;BME280;3257;52.298;13.690;2022-09-09T00:33:45;76421.72;;;-144.77;100.00
6449;BME280;3257;52.298;13.690;2022-09-09T00:36:14;76419.72;;;-144.77;100.00
6449;BME280;3257;52.298;13.690;2022-09-09T00:38:49;76417.75;;;-144.77;100.00
6449;BME280;3257;52.298;13.690;2022-09-09T00:41:44;76421.72;;;-144.77;100.00
6449;BME280;3257;52.298;13.690;2022-09-09T00:44:35;76427.69;;;-144.77;100.00
6449;BME280;3257;52.298;13.690;2022-09-09T00:50:22;76441.59;;;-144.77;100.00
6449;BME280;3257;52.298;13.690;2022-09-09T00:56:20;76423.72;;;-144.77;100.00
6449;BME280;3257;52.298;13.690;2022-09-09T00:59:00;76445.56;;;-144.77;100.00
6449;BME280;3257;52.298;13.690;2022-09-09T01:01:30;76447.56;;;-144.77;100.00
6449;BME280;3257;52.298;13.690;2022-09-09T01:03:57;76457.50;;;-144.77;100.00
6449;BME280;3257;52.298;13.690;2022-09-09T01:06:34;76435.63;;;-144.77;100.00
6449;BME280;3257;52.298;13.690;2022-09-09T01:17:17;76457.50;;;-144.77;100.00
6449;BME280;3257;52.298;13.690;2022-09-09T01:20:04;76467.44;;;-144.77;100.00
6449;BME280;3257;52.298;13.690;2022-09-09T01:28:26;76471.41;;;-144.77;100.00
6449;BME280;3257;52.298;13.690;2022-09-09T01:30:56;76481.34;;;-144.77;100.00
6449;BME280;3257;52.298;13.690;2022-09-09T01:33:24;76489.28;;;-144.77;100.00
6449;BME280;3257;52.298;13.690;2022-09-09T01:35:55;76483.31;;;-144.77;100.00
6449;BME280;3257;52.298;13.690;2022-09-09T01:38:24;76475.38;;;-144.77;100.00
6449;BME280;3257;52.298;13.690;2022-09-09T01:40:51;76445.56;;;-144.77;100.00
6449;BME280;3257;52.298;13.690;2022-09-09T01:43:20;76469.41;;;-144.77;100.00
6449;BME280;3257;52.298;13.690;2022-09-09T01:45:48;76475.38;;;-144.77;100.00
6449;BME280;3257;52.298;13.690;2022-09-09T01:48:16;76477.38;;;-144.77;100.00
6449;BME280;3257;52.298;13.690;2022-09-09T01:50:44;76487.28;;;-144.77;100.00
6449;BME280;3257;52.298;13.690;2022-09-09T01:53:11;76469.41;;;-144.77;100.00
6449;BME280;3257;52.298;13.690;2022-09-09T01:55:40;76473.38;;;-144.77;100.00
6449;BME280;3257;52.298;13.690;2022-09-09T02:01:27;76475.38;;;-144.77;100.00
6449;BME280;3257;52.298;13.690;2022-09-09T02:04:01;76487.28;;;-144.77;100.00
6449;BME280;3257;52.298;13.690;2022-09-09T02:06:39;76495.25;;;-144.77;100.00
6449;BME280;3257;52.298;13.690;2022-09-09T02:09:10;76495.25;;;-144.77;100.00
6449;BME280;3257;52.298;13.690;2022-09-09T02:11:38;76503.19;;;-144.77;100.00
6449;BME280;3257;52.298;13.690;2022-09-09T02:14:17;76511.16;;;-144.77;100.00
6449;BME280;3257;52.298;13.690;2022-09-09T02:17:11;76511.16;;;-144.77;100.00
6449;BME280;3257;52.298;13.690;2022-09-09T02:19:45;76503.19;;;-144.77;100.00
6449;BME280;3257;52.298;13.690;2022-09-09T02:22:19;76481.34;;;-144.77;100.00
6449;BME280;3257;52.298;13.690;2022-09-09T02:24:48;76497.22;;;-144.77;100.00
6449;BME280;3257;52.298;13.690;2022-09-09T02:27:18;76509.16;;;-144.77;100.00
6449;BME280;3257;52.298;13.690;2022-09-09T02:29:45;76523.06;;;-144.77;100.00
6449;BME280;3257;52.298;13.690;2022-09-09T02:32:23;76509.16;;;-144.77;100.00
6449;BME280;3257;52.298;13.690;2022-09-09T02:34:55;76503.19;;;-144.77;100.00
6449;BME280;3257;52.298;13.690;2022-09-09T02:37:27;76517.09;;;-144.77;100.00
6449;BME280;3257;52.298;13.690;2022-09-09T02:39:55;76517.09;;;-144.77;100.00
6449;BME280;3257;52.298;13.690;2022-09-09T02:42:22;76521.09;;;-144.77;100.00
6449;BME280;3257;52.298;13.690;2022-09-09T02:44:48;76519.09;;;-144.77;100.00
6449;BME280;3257;52.298;13.690;2022-09-09T02:47:17;76515.13;;;-144.77;100.00
6449;BME280;3257;52.298;13.690;2022-09-09T02:52:50;76515.13;;;-144.77;100.00
6449;BME280;3257;52.298;13.690;2022-09-09T02:55:28;76538.97;;;-144.77;100.00
6449;BME280;3257;52.298;13.690;2022-09-09T02:57:59;76527.03;;;-144.77;100.00
6449;BME280;3257;52.298;13.690;2022-09-09T03:00:26;76523.06;;;-144.77;100.00
6449;BME280;3257;52.298;13.690;2022-09-09T03:02:54;76517.09;;;-144.77;100.00
6449;BME280;3257;52.298;13.690;2022-09-09T03:05:21;76527.03;;;-144.77;100.00
6449;BME280;3257;52.298;13.690;2022-09-09T03:07:47;76546.91;;;-144.77;100.00
6449;BME280;3257;52.298;13.690;2022-09-09T03:10:16;76546.91;;;-144.77;100.00
6449;BME280;3257;52.298;13.690;2022-09-09T03:12:43;76546.91;;;-144.77;100.00
6449;BME280;3257;52.298;13.690;2022-09-09T03:15:10;76542.94;;;-144.77;100.00
6449;BME280;3257;52.298;13.690;2022-09-09T03:17:37;76542.94;;;-144.77;99.67
6449;BME280;3257;52.298;13.690;2022-09-09T03:20:04;76535.00;;;-144.77;100.00
6449;BME280;3257;52.298;13.690;2022-09-09T03:22:30;76542.94;;;-144.77;99.69
6449;BME280;3257;52.298;13.690;2022-09-09T03:24:58;76527.03;;;-144.77;100.00
6449;BME280;3257;52.298;13.690;2022-09-09T03:27:24;76548.91;;;-144.77;99.71
6449;BME280;3257;52.298;13.690;2022-09-09T03:29:51;76540.94;;;-144.77;99.75
6449;BME280;3257;52.298;13.690;2022-09-09T03:32:18;76538.97;;;-144.77;99.75
6449;BME280;3257;52.298;13.690;2022-09-09T03:34:45;76550.88;;;-144.77;100.00
6449;BME280;3257;52.298;13.690;2022-09-09T03:37:13;76544.94;;;-144.77;100.00
6449;BME280;3257;52.298;13.690;2022-09-09T03:39:40;76556.84;;;-144.77;100.00
6449;BME280;3257;52.298;13.690;2022-09-09T03:42:06;76546.91;;;-144.77;100.00
6449;BME280;3257;52.298;13.690;2022-09-09T03:44:33;76560.81;;;-144.77;100.00
6449;BME280;3257;52.298;13.690;2022-09-09T03:46:59;76562.81;;;-144.77;100.00
6449;BME280;3257;52.298;13.690;2022-09-09T03:49:29;76566.78;;;-144.77;100.00
6449;BME280;3257;52.298;13.690;2022-09-09T03:51:56;76572.75;;;-144.77;100.00
6449;BME280;3257;52.298;13.690;2022-09-09T03:54:24;76558.84;;;-144.77;100.00
6449;BME280;3257;52.298;13.690;2022-09-09T03:56:51;76560.81;;;-144.77;100.00
6449;BME280;3257;52.298;13.690;2022-09-09T03:59:18;76562.81;;;-144.77;100.00
6449;BME280;3257;52.298;13.690;2022-09-09T04:01:44;76562.81;;;-144.77;100.00
6449;BME280;3257;52.298;13.690;2022-09-09T04:04:11;76564.78;;;-144.77;100.00
6449;BME280;3257;52.298;13.690;2022-09-09T04:06:38;76558.84;;;-144.77;100.00
6449;BME280;3257;52.298;13.690;2022-09-09T04:09:05;76582.69;;;-144.77;100.00
6449;BME280;3257;52.298;13.690;2022-09-09T04:11:31;76586.66;;;-144.77;100.00
6449;BME280;3257;52.298;13.690;2022-09-09T04:13:58;76578.72;;;-144.77;100.00
6449;BME280;3257;52.298;13.690;2022-09-09T04:16:24;76588.63;;;-144.77;100.00
6449;BME280;3257;52.298;13.690;2022-09-09T04:18:51;76562.81;;;-144.77;99.76
6449;BME280;3257;52.298;13.690;2022-09-09T04:21:19;76588.63;;;-144.77;99.66
6449;BME280;3257;52.298;13.690;2022-09-09T04:23:46;76596.59;;;-144.77;99.86
6449;BME280;3257;52.298;13.690;2022-09-09T04:26:12;76608.50;;;-144.77;100.00
6449;BME280;3257;52.298;13.690;2022-09-09T04:28:39;76606.53;;;-144.77;99.92
6449;BME280;3257;52.298;13.690;2022-09-09T04:31:08;76620.44;;;-144.77;99.98
6449;BME280;3257;52.298;13.690;2022-09-09T04:33:35;76596.59;;;-144.77;100.00
6449;BME280;3257;52.298;13.690;2022-09-09T04:36:07;76600.56;;;-144.77;100.00
6449;BME280;3257;52.298;13.690;2022-09-09T04:38:35;76602.56;;;-144.77;100.00
6449;BME280;3257;52.298;13.690;2022-09-09T04:41:05;76610.50;;;-144.77;100.00
6449;BME280;3257;52.298;13.690;2022-09-09T04:43:33;76624.41;;;-144.77;100.00
6449;BME280;3257;52.298;13.690;2022-09-09T04:46:00;76630.38;;;-144.77;100.00
6449;BME280;3257;52.298;13.690;2022-09-09T04:48:27;76610.50;;;-144.77;100.00
6449;BME280;3257;52.298;13.690;2022-09-09T04:51:03;76610.50;;;-144.77;100.00
6449;BME280;3257;52.298;13.690;2022-09-09T04:53:31;76594.59;;;-144.77;100.00
6449;BME280;3257;52.298;13.690;2022-09-09T04:56:12;76598.56;;;-144.77;100.00
6449;BME280;3257;52.298;13.690;2022-09-09T04:58:40;76604.53;;;-144.77;100.00
6449;BME280;3257;52.298;13.690;2022-09-09T05:01:18;76612.50;;;-144.77;100.00
6449;BME280;3257;52.298;13.690;2022-09-09T05:03:45;76596.59;;;-144.77;100.00
6449;BME280;3257;52.298;13.690;2022-09-09T05:06:14;76604.53;;;-144.77;100.00
6449;BME280;3257;52.298;13.690;2022-09-09T05:08:42;76612.50;;;-144.77;99.94
6449;BME280;3257;52.298;13.690;2022-09-09T05:13:45;76594.59;;;-144.77;99.67
6449;BME280;3257;52.298;13.690;2022-09-09T05:16:13;76600.56;;;-144.77;99.79
6449;BME280;3257;52.298;13.690;2022-09-09T05:18:40;76568.78;;;-144.77;99.87
6449;BME280;3257;52.298;13.690;2022-09-09T05:21:11;76588.63;;;-144.77;100.00
6449;BME280;3257;52.298;13.690;2022-09-09T05:23:42;76586.66;;;-144.77;100.00
6449;BME280;3257;52.298;13.690;2022-09-09T05:26:18;76582.69;;;-144.77;100.00
6449;BME280;3257;52.298;13.690;2022-09-09T05:28:45;76592.63;;;-144.77;100.00
6449;BME280;3257;52.298;13.690;2022-09-09T05:31:14;76586.66;;;-144.77;100.00
6449;BME280;3257;52.298;13.690;2022-09-09T05:33:43;76582.69;;;-144.77;100.00
6449;BME280;3257;52.298;13.690;2022-09-09T05:36:17;76566.78;;;-144.77;100.00
6449;BME280;3257;52.298;13.690;2022-09-09T05:38:44;76568.78;;;-144.77;100.00
6449;BME280;3257;52.298;13.690;2022-09-09T05:41:12;76566.78;;;-144.77;100.00
6449;BME280;3257;52.298;13.690;2022-09-09T05:43:42;76550.88;;;-144.77;100.00
6449;BME280;3257;52.298;13.690;2022-09-09T05:46:17;76552.88;;;-144.77;100.00
6449;BME280;3257;52.298;13.690;2022-09-09T05:48:46;76558.84;;;-144.77;100.00
6449;BME280;3257;52.298;13.690;2022-09-09T05:51:16;76546.91;;;-144.77;100.00
6449;BME280;3257;52.298;13.690;2022-09-09T05:53:45;76550.88;;;-144.77;100.00
6449;BME280;3257;52.298;13.690;2022-09-09T05:56:17;76542.94;;;-144.77;100.00
6449;BME280;3257;52.298;13.690;2022-09-09T05:58:49;76536.97;;;-144.77;100.00
6449;BME280;3257;52.298;13.690;2022-09-09T06:01:26;76536.97;;;-144.77;100.00
6449;BME280;3257;52.298;13.690;2022-09-09T06:03:54;76535.00;;;-144.77;100.00
6449;BME280;3257;52.298;13.690;2022-09-09T06:06:24;76533.00;;;-144.77;100.00
6449;BME280;3257;52.298;13.690;2022-09-09T06:08:54;76523.06;;;-144.77;100.00
6449;BME280;3257;52.298;13.690;2022-09-09T06:11:26;76515.13;;;-144.77;100.00
6449;BME280;3257;52.298;13.690;2022-09-09T06:13:53;76499.22;;;-144.77;100.00
6449;BME280;3257;52.298;13.690;2022-09-09T06:16:22;76493.25;;;-144.77;100.00
6449;BME280;3257;52.298;13.690;2022-09-09T06:18:56;76473.38;;;-144.77;100.00
6449;BME280;3257;52.298;13.690;2022-09-09T06:21:38;76479.34;;;-144.77;100.00
6449;BME280;3257;52.298;13.690;2022-09-09T06:24:05;76467.44;;;-144.77;100.00
6449;BME280;3257;52.298;13.690;2022-09-09T06:26:41;76455.50;;;-144.77;100.00
6449;BME280;3257;52.298;13.690;2022-09-09T06:29:18;76467.44;;;-144.77;100.00
6449;BME280;3257;52.298;13.690;2022-09-09T06:31:47;76463.44;;;-144.77;100.00
6449;BME280;3257;52.298;13.690;2022-09-09T06:34:35;76449.53;;;-144.77;100.00
6449;BME280;3257;52.298;13.690;2022-09-09T06:37:07;76435.63;;;-144.77;100.00
6449;BME280;3257;52.298;13.690;2022-09-09T06:39:34;76421.72;;;-144.77;100.00
6449;BME280;3257;52.298;13.690;2022-09-09T06:42:01;76423.72;;;-144.77;100.00
6449;BME280;3257;52.298;13.690;2022-09-09T06:44:28;76411.78;;;-144.77;100.00
6449;BME280;3257;52.298;13.690;2022-09-09T06:47:00;76389.94;;;-144.77;100.00
6449;BME280;3257;52.298;13.690;2022-09-09T06:49:27;76389.94;;;-144.77;100.00
6449;BME280;3257;52.298;13.690;2022-09-09T06:51:53;76380.00;;;-144.77;100.00
6449;BME280;3257;52.298;13.690;2022-09-09T06:54:20;76364.09;;;-144.77;100.00
6449;BME280;3257;52.298;13.690;2022-09-09T06:56:48;76366.09;;;-144.77;100.00
6449;BME280;3257;52.298;13.690;2022-09-09T06:59:16;76356.16;;;-144.77;99.37
6449;BME280;3257;52.298;13.690;2022-09-09T07:01:43;76358.13;;;-144.77;99.02
6449;BME280;3257;52.298;13.690;2022-09-09T07:04:17;76354.16;;;-144.77;99.27
6449;BME280;3257;52.298;13.690;2022-09-09T07:06:45;76342.25;;;-144.77;99.42
6449;BME280;3257;52.298;13.690;2022-09-09T07:09:14;76332.31;;;-144.77;99.90
6449;BME280;3257;52.298;13.690;2022-09-09T07:11:49;76290.56;;;-144.77;99.49
6449;BME280;3257;52.298;13.690;2022-09-09T07:14:16;76296.53;;;-144.77;99.65
6449;BME280;3257;52.298;13.690;2022-09-09T07:16:44;76294.56;;;-144.77;100.00
6449;BME280;3257;52.298;13.690;2022-09-09T07:19:12;76308.47;;;-144.77;99.69
6449;BME280;3257;52.298;13.690;2022-09-09T07:21:39;76300.50;;;-144.77;99.33
6449;BME280;3257;52.298;13.690;2022-09-09T07:24:08;76282.63;;;-144.77;98.12
6449;BME280;3257;52.298;13.690;2022-09-09T07:26:37;76288.59;;;-144.77;98.62
6449;BME280;3257;52.298;13.690;2022-09-09T07:29:04;76252.81;;;-144.77;98.22
6449;BME280;3257;52.298;13.690;2022-09-09T07:31:33;76264.75;;;-144.77;97.84
6449;BME280;3257;52.298;13.690;2022-09-09T07:34:02;76256.78;;;-144.77;97.90
6449;BME280;3257;52.298;13.690;2022-09-09T07:36:31;76254.81;;;-144.77;98.37
6449;BME280;3257;52.298;13.690;2022-09-09T07:39:04;76248.84;;;-144.77;98.06
6449;BME280;3257;52.298;13.690;2022-09-09T07:41:45;76248.84;;;-144.77;97.62
6449;BME280;3257;52.298;13.690;2022-09-09T07:44:21;76248.84;;;-144.77;97.54
6449;BME280;3257;52.298;13.690;2022-09-09T07:46:48;76234.94;;;-144.77;97.35
6449;BME280;3257;52.298;13.690;2022-09-09T07:49:15;76236.94;;;-144.77;96.82
6449;BME280;3257;52.298;13.690;2022-09-09T07:51:44;76246.88;;;-144.77;97.33
6449;BME280;3257;52.298;13.690;2022-09-09T07:54:33;76236.94;;;-144.77;95.21
6449;BME280;3257;52.298;13.690;2022-09-09T07:56:59;76234.94;;;-144.77;95.76
6449;BME280;3257;52.298;13.690;2022-09-09T07:59:26;76193.22;;;-144.77;94.70
6449;BME280;3257;52.298;13.690;2022-09-09T08:01:58;76195.19;;;-144.77;95.49
6449;BME280;3257;52.298;13.690;2022-09-09T08:04:28;76157.44;;;-144.77;95.47
6449;BME280;3257;52.298;13.690;2022-09-09T08:06:58;76173.34;;;-144.77;94.09
6449;BME280;3257;52.298;13.690;2022-09-09T08:09:27;76145.53;;;-144.77;93.27
6449;BME280;3257;52.298;13.690;2022-09-09T08:11:56;76111.75;;;-144.77;89.00
6449;BME280;3257;52.298;13.690;2022-09-09T08:14:22;76107.78;;;-144.77;90.16
6449;BME280;3257;52.298;13.690;2022-09-09T08:16:49;76109.75;;;-144.77;90.97
6449;BME280;3257;52.298;13.690;2022-09-09T08:19:16;76117.72;;;-144.77;90.17
6449;BME280;3257;52.298;13.690;2022-09-09T08:21:44;76115.72;;;-144.77;91.01
6449;BME280;3257;52.298;13.690;2022-09-09T08:24:11;76097.84;;;-144.77;91.18
6449;BME280;3257;52.298;13.690;2022-09-09T08:26:40;76107.78;;;-144.77;88.90
6449;BME280;3257;52.298;13.690;2022-09-09T08:29:12;76074.00;;;-144.77;90.32
6449;BME280;3257;52.298;13.690;2022-09-09T08:31:46;76040.22;;;-144.77;91.10
6449;BME280;3257;52.298;13.690;2022-09-09T08:34:14;76026.31;;;-144.77;89.55
6449;BME280;3257;52.298;13.690;2022-09-09T08:36:43;75994.53;;;-144.77;88.57
6449;BME280;3257;52.298;13.690;2022-09-09T08:39:14;75996.50;;;-144.77;84.22
6449;BME280;3257;52.298;13.690;2022-09-09T08:52:32;75843.53;;;-144.77;81.12
6449;BME280;3257;52.298;13.690;2022-09-09T08:57:50;75847.50;;;-144.77;78.78
6449;BME280;3257;52.298;13.690;2022-09-09T09:00:18;75873.31;;;-144.77;78.87
6449;BME280;3257;52.298;13.690;2022-09-09T09:05:38;75837.56;;;-144.77;82.16
6449;BME280;3257;52.298;13.690;2022-09-09T09:11:04;75831.59;;;-144.77;78.42
6449;BME280;3257;52.298;13.690;2022-09-09T09:13:43;75817.69;;;-144.77;79.25
6449;BME280;3257;52.298;13.690;2022-09-09T09:16:56;75839.56;;;-144.77;79.54
6449;BME280;3257;52.298;13.690;2022-09-09T09:19:24;75819.69;;;-144.77;79.46
6449;BME280;3257;52.298;13.690;2022-09-09T09:21:58;75825.66;;;-144.77;76.69
6449;BME280;3257;52.298;13.690;2022-09-09T09:27:01;75803.78;;;-144.77;77.72
6449;BME280;3257;52.298;13.690;2022-09-09T09:29:33;75799.81;;;-144.77;77.33
6449;BME280;3257;52.298;13.690;2022-09-09T09:32:21;75807.75;;;-144.77;74.13
6449;BME280;3257;52.298;13.690;2022-09-09T09:34:51;75785.91;;;-144.77;75.34
6449;BME280;3257;52.298;13.690;2022-09-09T09:37:29;75775.97;;;-144.77;76.55
6449;BME280;3257;52.298;13.690;2022-09-09T09:40:17;75777.97;;;-144.77;75.18
6449;BME280;3257;52.298;13.690;2022-09-09T09:45:41;75748.16;;;-144.77;74.82
6449;BME280;3257;52.298;13.690;2022-09-09T09:48:21;75754.13;;;-144.77;74.06
6449;BME280;3257;52.298;13.690;2022-09-09T09:50:55;75750.16;;;-144.77;71.96
6449;BME280;3257;52.298;13.690;2022-09-09T09:53:30;75738.22;;;-144.77;71.67
6449;BME280;3257;52.298;13.690;2022-09-09T09:56:01;75732.28;;;-144.77;74.25
6449;BME280;3257;52.298;13.690;2022-09-09T09:58:31;75730.28;;;-144.77;73.23
6449;BME280;3257;52.298;13.690;2022-09-09T10:01:01;75752.13;;;-144.77;71.14
6449;BME280;3257;52.298;13.690;2022-09-09T10:03:29;75746.19;;;-144.77;74.19
6449;BME280;3257;52.298;13.690;2022-09-09T10:05:56;75756.13;;;-144.77;71.97
6449;BME280;3257;52.298;13.690;2022-09-09T10:08:27;75748.16;;;-144.77;73.26
6449;BME280;3257;52.298;13.690;2022-09-09T10:11:25;75712.41;;;-144.77;71.42
6449;BME280;3257;52.298;13.690;2022-09-09T10:14:24;75698.50;;;-144.77;68.88
6449;BME280;3257;52.298;13.690;2022-09-09T10:19:34;75656.78;;;-144.77;73.22
6449;BME280;3257;52.298;13.690;2022-09-09T10:22:27;75662.75;;;-144.77;68.93
6449;BME280;3257;52.298;13.690;2022-09-09T10:32:49;75613.06;;;-144.77;65.14
6449;BME280;3257;52.298;13.690;2022-09-09T10:35:26;75601.16;;;-144.77;68.83
6449;BME280;3257;52.298;13.690;2022-09-09T10:38:10;75551.50;;;-144.77;64.32
6449;BME280;3257;52.298;13.690;2022-09-09T10:41:08;75517.72;;;-144.77;63.46
6449;BME280;3257;52.298;13.690;2022-09-09T10:43:43;75493.88;;;-144.77;63.23
6449;BME280;3257;52.298;13.690;2022-09-09T10:49:54;75472.03;;;-144.77;62.69
6449;BME280;3257;52.298;13.690;2022-09-09T10:57:42;75446.19;;;-144.77;62.94
6449;BME280;3257;52.298;13.690;2022-09-09T11:00:22;75434.28;;;-144.77;62.82
6449;BME280;3257;52.298;13.690;2022-09-09T11:02:55;75392.56;;;-144.77;61.54
6449;BME280;3257;52.298;13.690;2022-09-09T11:05:35;75362.75;;;-144.77;60.21
6449;BME280;3257;52.298;13.690;2022-09-09T11:08:12;75346.88;;;-144.77;61.67
6449;BME280;3257;52.298;13.690;2022-09-09T11:13:37;75348.88;;;-144.77;55.69
6449;BME280;3257;52.298;13.690;2022-09-09T11:18:42;75323.03;;;-144.77;55.84
6449;BME280;3257;52.298;13.690;2022-09-09T11:21:25;75311.13;;;-144.77;56.56
6449;BME280;3257;52.298;13.690;2022-09-09T11:23:59;75319.06;;;-144.77;52.28
6449;BME280;3257;52.298;13.690;2022-09-09T11:26:39;75307.16;;;-144.77;54.76
6449;BME280;3257;52.298;13.690;2022-09-09T11:29:24;75350.84;;;-144.77;58.12
6449;BME280;3257;52.298;13.690;2022-09-09T11:34:50;75402.50;;;-144.77;55.06
6449;BME280;3257;52.298;13.690;2022-09-09T11:40:24;75472.03;;;-144.77;57.37
6449;BME280;3257;52.298;13.690;2022-09-09T11:43:12;75503.81;;;-144.77;59.72
6449;BME280;3257;52.298;13.690;2022-09-09T11:45:41;75479.97;;;-144.77;61.94
6449;BME280;3257;52.298;13.690;2022-09-09T11:58:57;75501.81;;;-144.77;62.09
6449;BME280;3257;52.298;13.690;2022-09-09T12:02:51;75509.78;;;-144.77;65.06
6449;BME280;3257;52.298;13.690;2022-09-09T12:06:58;75513.75;;;-144.77;64.18
6449;BME280;3257;52.298;13.690;2022-09-09T12:10:26;75525.66;;;-144.77;65.12
6449;BME280;3257;52.298;13.690;2022-09-09T12:13:19;75521.69;;;-144.77;66.57
6449;BME280;3257;52.298;13.690;2022-09-09T12:18:24;75477.97;;;-144.77;71.02
6449;BME280;3257;52.298;13.690;2022-09-09T12:21:16;75466.06;;;-144.77;68.75
6449;BME280;3257;52.298;13.690;2022-09-09T12:24:13;75438.25;;;-144.77;65.79
6449;BME280;3257;52.298;13.690;2022-09-09T12:32:29;75460.09;;;-144.77;61.26
6449;BME280;3257;52.298;13.690;2022-09-09T12:35:02;75450.16;;;-144.77;61.77
6449;BME280;3257;52.298;13.690;2022-09-09T12:37:38;75436.28;;;-144.77;58.60
6449;BME280;3257;52.298;13.690;2022-09-09T12:40:21;75438.25;;;-144.77;59.80
6449;BME280;3257;52.298;13.690;2022-09-09T12:42:47;75418.38;;;-144.77;61.65
6449;BME280;3257;52.298;13.690;2022-09-09T12:45:25;75414.41;;;-144.77;59.94
6449;BME280;3257;52.298;13.690;2022-09-09T12:48:08;75408.47;;;-144.77;58.96
6449;BME280;3257;52.298;13.690;2022-09-09T12:50:44;75396.53;;;-144.77;58.71
6449;BME280;3257;52.298;13.690;2022-09-09T12:53:23;75374.69;;;-144.77;57.73
6449;BME280;3257;52.298;13.690;2022-09-09T12:55:58;75372.69;;;-144.77;55.91
6449;BME280;3257;52.298;13.690;2022-09-09T12:58:26;75374.69;;;-144.77;56.59
6449;BME280;3257;52.298;13.690;2022-09-09T13:00:56;75360.78;;;-144.77;58.41
6449;BME280;3257;52.298;13.690;2022-09-09T13:03:23;75340.91;;;-144.77;56.32
6449;BME280;3257;52.298;13.690;2022-09-09T13:05:52;75344.88;;;-144.77;54.86
6449;BME280;3257;52.298;13.690;2022-09-09T13:08:19;75327.00;;;-144.77;53.61
6449;BME280;3257;52.298;13.690;2022-09-09T13:10:51;75311.13;;;-144.77;52.34
6449;BME280;3257;52.298;13.690;2022-09-09T13:13:31;75311.13;;;-144.77;52.09
6449;BME280;3257;52.298;13.690;2022-09-09T13:16:02;75305.16;;;-144.77;54.04
6449;BME280;3257;52.298;13.690;2022-09-09T13:18:36;75297.22;;;-144.77;52.10
6449;BME280;3257;52.298;13.690;2022-09-09T13:21:04;75289.28;;;-144.77;52.64
6449;BME280;3257;52.298;13.690;2022-09-09T13:23:33;75319.06;;;-144.77;53.32
6449;BME280;3257;52.298;13.690;2022-09-09T13:26:06;75319.06;;;-144.77;53.86
6449;BME280;3257;52.298;13.690;2022-09-09T13:28:47;75325.03;;;-144.77;54.38
6449;BME280;3257;52.298;13.690;2022-09-09T13:31:28;75321.06;;;-144.77;56.00
6449;BME280;3257;52.298;13.690;2022-09-09T13:33:56;75307.16;;;-144.77;56.15
6449;BME280;3257;52.298;13.690;2022-09-09T13:36:34;75287.28;;;-144.77;55.15
6449;BME280;3257;52.298;13.690;2022-09-09T13:39:03;75295.22;;;-144.77;56.02
6449;BME280;3257;52.298;13.690;2022-09-09T13:41:32;75287.28;;;-144.77;57.23
6449;BME280;3257;52.298;13.690;2022-09-09T13:44:00;75297.22;;;-144.77;56.01
6449;BME280;3257;52.298;13.690;2022-09-09T13:46:38;75317.06;;;-144.77;56.75
6449;BME280;3257;52.298;13.690;2022-09-09T13:51:41;75311.13;;;-144.77;57.76
6449;BME280;3257;52.298;13.690;2022-09-09T13:54:10;75315.09;;;-144.77;58.24
6449;BME280;3257;52.298;13.690;2022-09-09T13:56:38;75307.16;;;-144.77;58.09
6449;BME280;3257;52.298;13.690;2022-09-09T13:59:06;75291.25;;;-144.77;56.25
6449;BME280;3257;52.298;13.690;2022-09-09T14:01:35;75307.16;;;-144.77;56.13
6449;BME280;3257;52.298;13.690;2022-09-09T14:04:04;75297.22;;;-144.77;55.34
6449;BME280;3257;52.298;13.690;2022-09-09T14:06:35;75305.16;;;-144.77;57.44
6449;BME280;3257;52.298;13.690;2022-09-09T14:09:07;75305.16;;;-144.77;58.59
6449;BME280;3257;52.298;13.690;2022-09-09T14:11:34;75327.00;;;-144.77;58.56
6449;BME280;3257;52.298;13.690;2022-09-09T14:14:00;75338.94;;;-144.77;59.82
6449;BME280;3257;52.298;13.690;2022-09-09T14:16:27;75348.88;;;-144.77;59.09
6449;BME280;3257;52.298;13.690;2022-09-09T14:18:54;75360.78;;;-144.77;57.70
6449;BME280;3257;52.298;13.690;2022-09-09T14:21:25;75360.78;;;-144.77;59.63
6449;BME280;3257;52.298;13.690;2022-09-09T14:23:52;75346.88;;;-144.77;57.34
6449;BME280;3257;52.298;13.690;2022-09-09T14:26:20;75309.13;;;-144.77;57.16
6449;BME280;3257;52.298;13.690;2022-09-09T14:28:48;75283.31;;;-144.77;55.23
6449;BME280;3257;52.298;13.690;2022-09-09T14:31:22;75253.50;;;-144.77;54.41
6449;BME280;3257;52.298;13.690;2022-09-09T14:33:49;75231.66;;;-144.77;54.34
6449;BME280;3257;52.298;13.690;2022-09-09T14:36:19;75215.78;;;-144.77;50.19
6449;BME280;3257;52.298;13.690;2022-09-09T14:38:46;75243.59;;;-144.77;51.94
6449;BME280;3257;52.298;13.690;2022-09-09T14:41:15;75263.44;;;-144.77;53.17
6449;BME280;3257;52.298;13.690;2022-09-09T14:43:46;75269.41;;;-144.77;54.78
6449;BME280;3257;52.298;13.690;2022-09-09T14:46:15;75301.19;;;-144.77;56.67
6449;BME280;3257;52.298;13.690;2022-09-09T14:48:43;75307.16;;;-144.77;60.87
6449;BME280;3257;52.298;13.690;2022-09-09T14:51:17;75342.91;;;-144.77;65.05
6449;BME280;3257;52.298;13.690;2022-09-09T14:53:46;75380.66;;;-144.77;67.02
6449;BME280;3257;52.298;13.690;2022-09-09T14:56:15;75422.34;;;-144.77;68.54
6449;BME280;3257;52.298;13.690;2022-09-09T14:58:42;75489.91;;;-144.77;72.63
6449;BME280;3257;52.298;13.690;2022-09-09T15:01:19;75537.59;;;-144.77;76.43
6449;BME280;3257;52.298;13.690;2022-09-09T15:03:52;75603.13;;;-144.77;79.37